createdAt,value
2023-03-26T00:02:07.662Z,84.52
2023-03-26T00:04:35.796Z,84.52
2023-03-26T00:07:03.646Z,85.12
2023-03-26T00:09:33.793Z,85.25
2023-03-26T00:12:02.158Z,85.52
2023-03-26T00:14:35.381Z,85.90
2023-03-26T00:17:04.245Z,85.95
2023-03-26T00:19:32.273Z,85.91
2023-03-26T00:22:00.572Z,86.27
2023-03-26T00:24:29.729Z,85.84
2023-03-26T00:26:57.576Z,86.22
2023-03-26T00:29:28.239Z,86.10
2023-03-26T00:31:58.112Z,86.37
2023-03-26T00:34:26.920Z,87.44
2023-03-26T00:36:55.052Z,87.09
2023-03-26T00:39:24.022Z,87.21
2023-03-26T00:41:54.658Z,87.23
2023-03-26T00:44:23.072Z,87.11
2023-03-26T00:46:51.028Z,86.95
2023-03-26T00:49:20.237Z,87.29
2023-03-26T00:51:48.629Z,86.93
2023-03-26T00:54:16.610Z,86.66
2023-03-26T00:56:46.861Z,86.52
2023-03-26T00:59:14.927Z,86.27
2023-03-26T01:01:44.698Z,86.20
2023-03-26T01:04:27.489Z,86.35
2023-03-26T01:06:58.538Z,85.84
2023-03-26T01:09:33.033Z,86.17
2023-03-26T01:12:03.193Z,86.16
2023-03-26T01:14:31.894Z,85.71
2023-03-26T01:17:01.723Z,85.47
2023-03-26T01:19:40.831Z,85.34
2023-03-26T01:22:14.543Z,85.35
2023-03-26T01:24:46.140Z,85.31
2023-03-26T01:27:29.066Z,85.29
2023-03-26T01:30:04.010Z,85.74
2023-03-26T01:32:44.949Z,85.80
2023-03-26T01:35:28.092Z,85.80
2023-03-26T01:38:10.707Z,85.76
2023-03-26T01:40:43.907Z,85.33
2023-03-26T01:43:19.073Z,85.61
2023-03-26T01:45:50.900Z,85.77
2023-03-26T01:48:19.518Z,85.62
2023-03-26T01:50:48.679Z,85.30
2023-03-26T01:53:16.907Z,85.50
2023-03-26T01:55:57.556Z,85.21
2023-03-26T01:58:33.380Z,85.14
2023-03-26T02:01:16.883Z,85.18
2023-03-26T02:03:50.546Z,85.10
2023-03-26T02:06:25.831Z,85.05
2023-03-26T02:08:57.814Z,85.12
2023-03-26T02:11:35.429Z,84.83
2023-03-26T02:14:05.279Z,84.75
2023-03-26T02:16:33.790Z,85.02
2023-03-26T02:19:04.345Z,84.77
2023-03-26T02:21:34.171Z,84.71
2023-03-26T02:24:04.209Z,84.58
2023-03-26T02:26:39.322Z,84.52
2023-03-26T02:29:13.950Z,84.46
2023-03-26T02:31:44.448Z,84.43
2023-03-26T02:34:12.532Z,84.27
2023-03-26T02:36:46.077Z,84.15
2023-03-26T02:39:14.451Z,83.90
2023-03-26T02:41:49.932Z,83.79
2023-03-26T02:44:17.771Z,83.72
2023-03-26T02:47:00.495Z,83.64
2023-03-26T02:49:37.322Z,83.69
2023-03-26T02:52:06.659Z,83.66
2023-03-26T02:54:36.105Z,83.68
2023-03-26T02:57:16.760Z,83.70
2023-03-26T03:00:14.214Z,83.74
2023-03-26T03:02:58.021Z,83.88
2023-03-26T03:05:32.349Z,83.63
2023-03-26T03:08:19.518Z,83.58
2023-03-26T03:11:10.753Z,83.75
2023-03-26T03:13:44.624Z,83.75
2023-03-26T03:16:13.935Z,83.64
2023-03-26T03:18:42.139Z,83.77
2023-03-26T03:21:10.292Z,83.75
2023-03-26T03:23:38.248Z,83.69
2023-03-26T03:26:15.762Z,83.76
2023-03-26T03:28:49.585Z,83.82
2023-03-26T03:31:18.987Z,83.87
2023-03-26T03:33:47.239Z,83.83
2023-03-26T03:36:19.756Z,83.93
2023-03-26T03:38:49.582Z,83.88
2023-03-26T03:41:20.860Z,84.00
2023-03-26T03:43:51.830Z,84.06
2023-03-26T03:46:26.480Z,84.15
2023-03-26T03:48:54.803Z,84.32
2023-03-26T03:51:35.188Z,84.28
2023-03-26T03:54:05.892Z,84.36
2023-03-26T03:56:54.087Z,84.35
2023-03-26T03:59:28.955Z,84.51
2023-03-26T04:01:58.563Z,84.53
2023-03-26T04:04:34.549Z,84.64
2023-03-26T04:07:05.676Z,84.66
2023-03-26T04:09:57.177Z,84.52
2023-03-26T04:12:28.501Z,84.54
2023-03-26T04:15:05.135Z,84.53
2023-03-26T04:17:33.662Z,84.24
2023-03-26T04:20:10.603Z,84.24
2023-03-26T04:22:39.481Z,84.15
2023-03-26T04:25:11.439Z,84.17
2023-03-26T04:27:44.031Z,84.29
2023-03-26T04:30:25.464Z,84.22
2023-03-26T04:33:03.964Z,84.17
2023-03-26T04:35:35.624Z,84.17
2023-03-26T04:38:06.489Z,84.08
2023-03-26T04:40:39.179Z,84.23
2023-03-26T04:43:47.441Z,84.49
2023-03-26T04:46:24.887Z,84.13
2023-03-26T04:49:03.716Z,84.14
2023-03-26T04:51:39.133Z,84.48
2023-03-26T04:54:21.573Z,84.28
2023-03-26T04:57:02.286Z,84.47
2023-03-26T04:59:43.422Z,84.54
2023-03-26T05:02:15.662Z,84.29
2023-03-26T05:04:54.701Z,84.43
2023-03-26T05:07:26.259Z,84.34
2023-03-26T05:09:57.594Z,84.44
2023-03-26T05:12:41.851Z,84.42
2023-03-26T05:15:14.948Z,84.43
2023-03-26T05:18:08.784Z,84.57
2023-03-26T05:20:43.481Z,84.75
2023-03-26T05:23:11.833Z,84.62
2023-03-26T05:25:47.137Z,84.54
2023-03-26T05:28:20.743Z,84.74
2023-03-26T05:31:12.458Z,84.53
2023-03-26T05:33:46.626Z,84.30
2023-03-26T05:36:16.396Z,84.10
2023-03-26T05:38:49.671Z,83.99
2023-03-26T05:41:44.356Z,84.08
2023-03-26T05:44:12.444Z,84.04
2023-03-26T05:46:46.239Z,84.34
2023-03-26T05:49:22.975Z,84.30
2023-03-26T05:51:50.869Z,84.29
2023-03-26T05:54:54.018Z,84.33
2023-03-26T05:57:44.966Z,84.33
2023-03-26T06:00:31.629Z,84.27
2023-03-26T06:02:59.671Z,84.23
2023-03-26T06:05:35.462Z,83.88
2023-03-26T06:08:14.597Z,83.69
2023-03-26T06:10:50.722Z,83.98
2023-03-26T06:13:19.076Z,83.52
2023-03-26T06:15:49.355Z,83.35
2023-03-26T06:18:28.205Z,83.09
2023-03-26T06:21:18.530Z,83.18
2023-03-26T06:23:51.846Z,83.17
2023-03-26T06:26:41.489Z,82.32
2023-03-26T06:29:21.379Z,82.05
2023-03-26T06:32:12.316Z,81.83
2023-03-26T06:34:51.491Z,81.73
2023-03-26T06:37:21.087Z,81.04
2023-03-26T06:39:51.192Z,80.77
2023-03-26T06:42:21.621Z,80.14
2023-03-26T06:45:40.624Z,79.94
2023-03-26T06:48:27.561Z,79.17
2023-03-26T06:51:16.873Z,79.16
2023-03-26T06:54:16.869Z,78.96
2023-03-26T06:56:53.127Z,78.81
2023-03-26T06:59:33.257Z,78.62
2023-03-26T07:02:19.525Z,78.78
2023-03-26T07:05:05.935Z,78.14
2023-03-26T07:07:52.352Z,78.35
2023-03-26T07:10:41.732Z,77.88
2023-03-26T07:13:27.988Z,77.75
2023-03-26T07:16:24.994Z,77.12
2023-03-26T07:19:09.796Z,76.95
2023-03-26T07:21:40.897Z,76.43
2023-03-26T07:24:28.101Z,75.65
2023-03-26T07:27:18.797Z,75.41
2023-03-26T07:29:51.036Z,75.73
2023-03-26T07:32:39.368Z,75.43
2023-03-26T07:35:38.037Z,74.49
2023-03-26T07:38:33.804Z,73.56
2023-03-26T07:41:29.956Z,72.05
2023-03-26T07:44:36.705Z,71.80
2023-03-26T07:47:34.224Z,71.88
2023-03-26T07:50:25.902Z,71.89
2023-03-26T07:53:24.868Z,71.17
2023-03-26T07:56:13.872Z,71.16
2023-03-26T07:59:11.869Z,69.12
2023-03-26T08:02:32.767Z,68.28
2023-03-26T08:05:21.752Z,69.23
2023-03-26T08:08:18.380Z,68.49
2023-03-26T08:11:19.487Z,68.14
2023-03-26T08:14:05.595Z,68.05
2023-03-26T08:16:41.739Z,69.30
2023-03-26T08:19:34.594Z,68.67
2023-03-26T08:22:13.063Z,69.34
2023-03-26T08:24:50.774Z,69.47
2023-03-26T08:27:27.666Z,69.17
2023-03-26T08:30:02.724Z,69.63
2023-03-26T08:32:31.540Z,69.88
2023-03-26T08:35:01.178Z,69.81
2023-03-26T08:37:29.613Z,70.28
2023-03-26T08:39:57.607Z,70.61
2023-03-26T08:43:00.403Z,69.25
2023-03-26T08:46:00.763Z,69.26
2023-03-26T08:49:02.892Z,68.26
2023-03-26T08:52:11.278Z,67.77
2023-03-26T08:55:11.087Z,66.86
2023-03-26T08:58:24.426Z,65.30
2023-03-26T09:01:10.684Z,65.78
2023-03-26T09:03:55.955Z,63.25
2023-03-26T09:07:16.325Z,63.78
2023-03-26T09:10:15.872Z,62.06
2023-03-26T09:13:24.128Z,62.53
2023-03-26T09:16:29.937Z,62.41
2023-03-26T09:19:21.456Z,62.14
2023-03-26T09:22:28.024Z,61.32
2023-03-26T09:25:44.480Z,58.77
2023-03-26T09:28:44.114Z,60.36
2023-03-26T09:31:44.279Z,59.23
2023-03-26T09:34:31.354Z,58.79
2023-03-26T09:37:15.804Z,57.00
2023-03-26T09:39:53.173Z,58.06
2023-03-26T09:42:32.652Z,57.90
2023-03-26T09:45:21.022Z,56.52
2023-03-26T09:48:14.934Z,56.45
2023-03-26T09:50:58.612Z,56.20
2023-03-26T09:54:03.315Z,54.40
2023-03-26T09:56:42.075Z,56.48
2023-03-26T09:59:33.723Z,55.87
2023-03-26T10:02:19.453Z,55.89
2023-03-26T10:05:20.106Z,56.29
2023-03-26T10:07:58.656Z,57.45
2023-03-26T10:10:35.689Z,58.16
2023-03-26T10:13:14.954Z,58.37
2023-03-26T10:15:58.655Z,57.86
2023-03-26T10:18:40.941Z,59.22
2023-03-26T10:21:18.914Z,59.50
2023-03-26T10:24:01.657Z,59.75
2023-03-26T10:27:09.236Z,59.74
2023-03-26T10:30:02.644Z,61.30
2023-03-26T10:32:35.728Z,62.54
2023-03-26T10:35:22.748Z,61.89
2023-03-26T10:38:02.705Z,63.21
2023-03-26T10:40:33.730Z,63.75
2023-03-26T10:43:27.527Z,64.75
2023-03-26T10:46:06.891Z,64.78
2023-03-26T10:48:49.081Z,65.25
2023-03-26T10:51:33.073Z,65.96
2023-03-26T10:54:10.076Z,67.16
2023-03-26T10:56:43.504Z,68.01
2023-03-26T10:59:14.683Z,69.75
2023-03-26T11:01:48.008Z,71.70
2023-03-26T11:04:28.788Z,72.12
2023-03-26T11:07:11.942Z,72.75
2023-03-26T11:09:47.984Z,73.24
2023-03-26T11:12:26.275Z,73.42
2023-03-26T11:15:12.991Z,75.26
2023-03-26T11:17:52.646Z,73.56
2023-03-26T11:20:33.401Z,73.95
2023-03-26T11:23:24.622Z,73.97
2023-03-26T11:26:07.200Z,73.96
2023-03-26T11:29:03.743Z,73.35
2023-03-26T11:31:52.628Z,74.75
2023-03-26T11:34:27.892Z,75.62
2023-03-26T11:36:58.818Z,75.73
2023-03-26T11:39:30.252Z,76.71
2023-03-26T11:42:06.989Z,77.36
2023-03-26T11:44:53.595Z,77.08
2023-03-26T11:47:27.232Z,77.94
2023-03-26T11:50:00.577Z,78.80
2023-03-26T11:52:28.829Z,78.48
2023-03-26T11:54:58.607Z,78.65
2023-03-26T11:57:31.023Z,79.32
2023-03-26T12:00:08.035Z,79.59
2023-03-26T12:02:41.794Z,79.97
2023-03-26T12:05:21.530Z,79.85
2023-03-26T12:07:54.530Z,79.34
2023-03-26T12:10:31.013Z,79.33
2023-03-26T12:13:02.726Z,79.59
2023-03-26T12:15:32.059Z,79.62
2023-03-26T12:18:18.778Z,79.59
2023-03-26T12:20:47.001Z,78.96
2023-03-26T12:23:52.448Z,79.37
2023-03-26T12:26:36.133Z,79.39
2023-03-26T12:29:13.250Z,77.41
2023-03-26T12:31:58.754Z,76.33
2023-03-26T12:34:35.481Z,76.45
2023-03-26T12:37:05.375Z,76.60
2023-03-26T12:40:08.168Z,77.23
2023-03-26T12:44:50.824Z,77.84
2023-03-26T12:45:24.082Z,77.79
2023-03-26T12:48:03.889Z,77.47
2023-03-26T12:50:46.517Z,77.24
2023-03-26T12:53:34.933Z,76.41
2023-03-26T12:56:19.924Z,76.28
2023-03-26T12:59:08.162Z,76.48
2023-03-26T13:01:51.051Z,76.94
2023-03-26T13:05:04.304Z,77.26
2023-03-26T13:07:45.466Z,77.34
2023-03-26T13:10:43.204Z,77.24
2023-03-26T13:13:22.421Z,77.09
2023-03-26T13:15:54.764Z,76.95
2023-03-26T13:18:34.476Z,76.04
2023-03-26T13:21:11.495Z,76.29
2023-03-26T13:23:52.253Z,76.72
2023-03-26T13:26:35.346Z,76.79
2023-03-26T13:29:11.289Z,76.62
2023-03-26T13:31:46.321Z,76.40
2023-03-26T13:34:22.732Z,75.79
2023-03-26T13:37:04.292Z,75.35
2023-03-26T13:39:39.002Z,74.62
2023-03-26T13:42:23.871Z,74.59
2023-03-26T13:45:04.544Z,75.22
2023-03-26T13:47:39.715Z,74.37
2023-03-26T13:50:16.010Z,74.34
2023-03-26T13:52:47.027Z,74.31
2023-03-26T13:55:23.693Z,74.55
2023-03-26T13:58:00.115Z,74.96
2023-03-26T14:00:38.343Z,74.23
2023-03-26T14:03:17.365Z,74.00
2023-03-26T14:05:48.515Z,74.39
2023-03-26T14:08:23.065Z,74.27
2023-03-26T14:10:57.197Z,73.97
2023-03-26T14:13:31.284Z,73.15
2023-03-26T14:16:06.421Z,72.72
2023-03-26T14:18:44.675Z,72.68
2023-03-26T14:21:37.232Z,72.15
2023-03-26T14:24:35.492Z,72.08
2023-03-26T14:27:18.554Z,72.24
2023-03-26T14:30:29.874Z,71.65
2023-03-26T14:33:13.923Z,73.08
2023-03-26T14:35:54.060Z,74.45
2023-03-26T14:38:41.027Z,74.50
2023-03-26T14:41:24.342Z,75.02
2023-03-26T14:44:51.281Z,75.94
2023-03-26T14:47:21.354Z,76.84
2023-03-26T14:50:20.206Z,77.28
2023-03-26T14:52:51.521Z,77.16
2023-03-26T14:55:40.341Z,77.10
2023-03-26T14:58:39.484Z,77.66
2023-03-26T15:01:22.935Z,78.12
2023-03-26T15:04:41.316Z,76.98
2023-03-26T15:07:37.234Z,77.32
2023-03-26T15:10:43.271Z,76.62
2023-03-26T15:13:38.898Z,76.67
2023-03-26T15:16:14.976Z,76.47
2023-03-26T15:19:43.846Z,76.40
2023-03-26T15:22:55.145Z,75.79
2023-03-26T15:25:58.249Z,75.87
2023-03-26T15:29:10.484Z,76.35
2023-03-26T15:31:59.237Z,76.70
2023-03-26T15:34:48.608Z,76.67
2023-03-26T15:38:00.879Z,77.62
2023-03-26T15:40:56.565Z,77.58
2023-03-26T15:43:30.900Z,77.48
2023-03-26T15:46:27.189Z,77.88
2023-03-26T15:49:07.012Z,77.49
2023-03-26T15:51:51.871Z,77.88
2023-03-26T15:54:28.645Z,77.40
2023-03-26T15:57:07.132Z,77.29
2023-03-26T15:59:43.247Z,77.70
2023-03-26T16:02:22.626Z,77.31
2023-03-26T16:04:55.095Z,77.42
2023-03-26T16:07:47.877Z,77.14
2023-03-26T16:10:28.152Z,76.60
2023-03-26T16:13:28.202Z,77.12
2023-03-26T16:15:57.972Z,76.96
2023-03-26T16:18:35.767Z,77.09
2023-03-26T16:21:39.390Z,76.69
2023-03-26T16:24:21.964Z,76.41
2023-03-26T16:27:02.756Z,76.46
2023-03-26T16:29:30.896Z,76.23
2023-03-26T16:32:16.958Z,75.01
2023-03-26T16:34:52.737Z,74.56
2023-03-26T16:37:42.792Z,74.91
2023-03-26T16:40:34.760Z,75.09
2023-03-26T16:43:35.866Z,72.90
2023-03-26T16:46:09.752Z,72.63
2023-03-26T16:48:48.498Z,71.39
2023-03-26T16:51:25.846Z,71.15
2023-03-26T16:54:05.073Z,70.51
2023-03-26T16:56:44.487Z,70.65
2023-03-26T16:59:39.530Z,70.61
2023-03-26T17:02:22.160Z,71.18
2023-03-26T17:04:56.792Z,70.82
2023-03-26T17:07:33.569Z,70.90
2023-03-26T17:10:15.888Z,71.84
2023-03-26T17:12:51.608Z,71.85
2023-03-26T17:15:31.930Z,71.26
2023-03-26T17:18:25.667Z,70.74
2023-03-26T17:21:01.953Z,70.58
2023-03-26T17:23:41.222Z,70.85
2023-03-26T17:26:24.051Z,69.83
2023-03-26T17:29:09.427Z,70.16
2023-03-26T17:31:43.742Z,69.14
2023-03-26T17:34:54.435Z,68.89
2023-03-26T17:37:45.638Z,67.78
2023-03-26T17:40:54.559Z,68.69
2023-03-26T17:43:46.403Z,68.70
2023-03-26T17:46:26.462Z,68.07
2023-03-26T17:49:00.665Z,68.42
2023-03-26T17:51:40.990Z,68.29
2023-03-26T17:54:16.132Z,68.22
2023-03-26T17:56:44.503Z,68.31
2023-03-26T17:59:23.016Z,67.77
2023-03-26T18:01:55.384Z,68.46
2023-03-26T18:04:31.469Z,68.37
2023-03-26T18:07:15.343Z,66.15
2023-03-26T18:09:58.137Z,67.83
2023-03-26T18:13:00.376Z,67.46
2023-03-26T18:15:46.768Z,68.25
2023-03-26T18:18:18.052Z,66.43
2023-03-26T18:20:47.836Z,66.18
2023-03-26T18:23:23.898Z,66.33
2023-03-26T18:25:57.912Z,66.25
2023-03-26T18:28:36.165Z,66.24
2023-03-26T18:31:18.616Z,66.11
2023-03-26T18:33:48.330Z,66.26
2023-03-26T18:36:18.494Z,66.69
2023-03-26T18:38:48.730Z,66.06
2023-03-26T18:41:28.199Z,65.83
2023-03-26T18:43:57.391Z,66.11
2023-03-26T18:46:27.101Z,66.24
2023-03-26T18:48:55.649Z,66.48
2023-03-26T18:51:26.738Z,66.45
2023-03-26T18:53:57.252Z,66.25
2023-03-26T18:56:31.366Z,66.65
2023-03-26T18:59:01.332Z,65.91
2023-03-26T19:01:33.411Z,65.06
2023-03-26T19:04:05.216Z,65.78
2023-03-26T19:06:38.153Z,65.85
2023-03-26T19:09:20.100Z,65.48
2023-03-26T19:11:58.151Z,66.02
2023-03-26T19:14:28.480Z,66.29
2023-03-26T19:17:01.493Z,66.84
2023-03-26T19:19:33.519Z,67.61
2023-03-26T19:22:02.606Z,67.11
2023-03-26T19:24:30.643Z,67.74
2023-03-26T19:26:58.979Z,67.48
2023-03-26T19:29:29.666Z,67.98
2023-03-26T19:32:04.953Z,68.10
2023-03-26T19:34:34.830Z,68.68
2023-03-26T19:37:05.189Z,68.80
2023-03-26T19:39:41.501Z,68.82
2023-03-26T19:42:15.859Z,68.60
2023-03-26T19:44:44.203Z,68.81
2023-03-26T19:47:18.986Z,69.10
2023-03-26T19:49:52.902Z,68.78
2023-03-26T19:52:24.824Z,69.38
2023-03-26T19:55:01.249Z,69.50
2023-03-26T19:57:30.539Z,69.84
2023-03-26T19:59:58.619Z,69.75
2023-03-26T20:02:28.476Z,69.99
2023-03-26T20:04:56.355Z,70.26
2023-03-26T20:07:35.318Z,69.61
2023-03-26T20:10:05.849Z,70.08
2023-03-26T20:12:34.234Z,70.22
2023-03-26T20:15:02.720Z,70.58
2023-03-26T20:17:34.741Z,70.44
2023-03-26T20:20:05.627Z,69.86
2023-03-26T20:22:33.560Z,70.58
2023-03-26T20:25:01.275Z,70.41
2023-03-26T20:27:29.945Z,70.74
2023-03-26T20:29:58.289Z,70.79
2023-03-26T20:32:27.404Z,70.99
2023-03-26T20:34:57.688Z,70.70
2023-03-26T20:37:25.587Z,71.02
2023-03-26T20:39:53.327Z,71.10
2023-03-26T20:42:21.363Z,71.53
2023-03-26T20:44:49.063Z,71.45
2023-03-26T20:47:17.208Z,71.57
2023-03-26T20:49:45.862Z,71.90
2023-03-26T20:52:15.379Z,71.96
2023-03-26T20:54:43.556Z,71.88
2023-03-26T20:57:13.303Z,71.89
2023-03-26T20:59:41.925Z,71.76
2023-03-26T21:02:11.643Z,71.87
2023-03-26T21:04:39.784Z,71.87
2023-03-26T21:07:17.763Z,71.84
2023-03-26T21:09:48.838Z,71.88
2023-03-26T21:12:26.089Z,71.86
2023-03-26T21:14:55.950Z,72.11
2023-03-26T21:17:24.619Z,71.79
2023-03-26T21:19:53.217Z,71.55
2023-03-26T21:22:31.744Z,71.30
2023-03-26T21:25:12.980Z,71.22
2023-03-26T21:27:47.619Z,71.45
2023-03-26T21:30:17.614Z,71.57
2023-03-26T21:32:46.543Z,71.77
2023-03-26T21:35:16.092Z,71.85
2023-03-26T21:37:48.399Z,71.72
2023-03-26T21:40:18.733Z,71.72
2023-03-26T21:42:48.255Z,71.62
2023-03-26T21:45:17.282Z,71.56
2023-03-26T21:47:45.972Z,71.72
2023-03-26T21:50:20.368Z,72.42
2023-03-26T21:52:48.695Z,72.19
2023-03-26T21:55:20.079Z,72.40
2023-03-26T21:58:17.565Z,72.42
2023-03-26T22:00:55.126Z,72.30
2023-03-26T22:03:26.515Z,72.64
2023-03-26T22:06:01.087Z,72.73
2023-03-26T22:08:31.883Z,72.37
2023-03-26T22:11:01.384Z,72.80
2023-03-26T22:13:29.383Z,72.83
2023-03-26T22:15:57.228Z,72.97
2023-03-26T22:18:25.982Z,72.87
2023-03-26T22:20:54.162Z,73.16
2023-03-26T22:23:22.182Z,73.26
2023-03-26T22:25:49.873Z,73.37
2023-03-26T22:28:19.617Z,73.24
2023-03-26T22:30:47.383Z,73.24
2023-03-26T22:33:17.779Z,73.73
2023-03-26T22:35:46.482Z,73.90
2023-03-26T22:38:14.926Z,74.20
2023-03-26T22:40:42.762Z,74.16
2023-03-26T22:43:10.455Z,74.08
2023-03-26T22:45:39.525Z,74.11
2023-03-26T22:48:07.862Z,74.70
2023-03-26T22:50:35.648Z,74.65
2023-03-26T22:53:03.361Z,74.56
2023-03-26T22:55:31.067Z,74.69
2023-03-26T22:57:58.811Z,74.83
2023-03-26T23:00:26.778Z,74.87
2023-03-26T23:03:00.076Z,74.48
2023-03-26T23:05:28.454Z,74.88
2023-03-26T23:07:57.000Z,74.67
2023-03-26T23:10:24.760Z,74.97
2023-03-26T23:12:53.127Z,74.84
2023-03-26T23:15:20.963Z,74.94
2023-03-26T23:17:54.622Z,74.96
2023-03-26T23:20:24.427Z,74.96
2023-03-26T23:22:52.556Z,74.70
2023-03-26T23:25:20.929Z,75.25
2023-03-26T23:27:50.582Z,75.09
2023-03-26T23:30:19.137Z,75.12
2023-03-26T23:32:47.179Z,75.67
2023-03-26T23:35:15.123Z,75.51
2023-03-26T23:37:44.346Z,75.21
2023-03-26T23:40:13.775Z,75.71
2023-03-26T23:42:41.694Z,75.47
2023-03-26T23:45:09.975Z,76.18
2023-03-26T23:47:42.051Z,75.83
2023-03-26T23:50:11.051Z,76.12
2023-03-26T23:52:38.726Z,75.74
2023-03-26T23:55:08.644Z,76.18
2023-03-26T23:57:37.011Z,75.76
